KVYS/VYS METAR and TAF weather

Enter ICAO airport designator
Station Type Date Time Source
KVYS METAR 2020/09/21 23:55 UTC NOAA

KVYS 212355Z AUTO 13004KT 10SM CLR 21/09 A3024 RMK AO2 T02110093 10250 20211


Station Type Date Time Source
KVYS Decoded METAR 2020/09/21 23:55 UTC NOAA

Peru, Illinois Valley Regional-Walter A Duncan Field Airport, IL, United States (KVYS) 41-21-07N 089-09-11W
Sep 21, 2020 - 07:55 PM EDT / 2020.09.21 2355 UTC
Wind: from the SE (130 degrees) at 5 MPH (4 KT):0
Visibility: 10 mile(s):0
Sky conditions: clear
Temperature: 70.0 F (21.1 C)
Dew Point: 48.7 F (9.3 C)
Relative Humidity: 46%
Pressure (altimeter): 30.24 in. Hg (1024 hPa)
ob: KVYS 212355Z AUTO 13004KT 10SM CLR 21/09 A3024 RMK AO2 T02110093 10250 20211
cycle: 0

Station Type Date Time Source
KVYS TAF UTC NOAA

Error!

Example: see airport list